sensor_id;sensor_type;location;lat;lon;timestamp;pressure;altitude;pressure_sealevel;temperature;humidity
74868;BME280;63419;42.262;12.210;2022-10-31T00:01:59;98043.16;;;18.40;100.00
74868;BME280;63419;42.262;12.210;2022-10-31T00:04:31;98038.63;;;18.52;100.00
74868;BME280;63419;42.262;12.210;2022-10-31T00:06:58;98047.28;;;18.62;100.00
74868;BME280;63419;42.262;12.210;2022-10-31T00:09:28;98046.38;;;19.02;100.00
74868;BME280;63419;42.262;12.210;2022-10-31T00:12:00;98046.06;;;18.47;100.00
74868;BME280;63419;42.262;12.210;2022-10-31T00:14:29;98046.03;;;18.57;100.00
74868;BME280;63419;42.262;12.210;2022-10-31T00:17:00;98046.66;;;18.90;100.00
74868;BME280;63419;42.262;12.210;2022-10-31T00:19:30;98047.25;;;18.43;100.00
74868;BME280;63419;42.262;12.210;2022-10-31T00:22:02;98041.94;;;18.74;100.00
74868;BME280;63419;42.262;12.210;2022-10-31T00:24:30;98048.53;;;18.49;100.00
74868;BME280;63419;42.262;12.210;2022-10-31T00:27:00;98040.56;;;18.79;100.00
74868;BME280;63419;42.262;12.210;2022-10-31T00:29:28;98041.16;;;18.83;100.00
74868;BME280;63419;42.262;12.210;2022-10-31T00:31:56;98050.84;;;18.42;100.00
74868;BME280;63419;42.262;12.210;2022-10-31T00:34:29;98046.81;;;18.28;100.00
74868;BME280;63419;42.262;12.210;2022-10-31T00:36:56;98051.06;;;18.19;100.00
74868;BME280;63419;42.262;12.210;2022-10-31T00:39:24;98050.63;;;18.14;100.00
74868;BME280;63419;42.262;12.210;2022-10-31T00:41:51;98049.56;;;18.26;100.00
74868;BME280;63419;42.262;12.210;2022-10-31T00:44:19;98051.19;;;18.08;100.00
74868;BME280;63419;42.262;12.210;2022-10-31T00:46:46;98049.25;;;18.10;100.00
74868;BME280;63419;42.262;12.210;2022-10-31T00:49:17;98048.25;;;17.92;100.00
74868;BME280;63419;42.262;12.210;2022-10-31T00:51:49;98057.09;;;17.79;100.00
74868;BME280;63419;42.262;12.210;2022-10-31T00:54:16;98052.53;;;17.50;100.00
74868;BME280;63419;42.262;12.210;2022-10-31T00:56:47;98051.66;;;17.40;100.00
74868;BME280;63419;42.262;12.210;2022-10-31T00:59:15;98047.75;;;17.56;100.00
74868;BME280;63419;42.262;12.210;2022-10-31T01:01:42;98045.69;;;17.59;100.00
74868;BME280;63419;42.262;12.210;2022-10-31T01:04:12;98047.94;;;17.43;100.00
74868;BME280;63419;42.262;12.210;2022-10-31T01:06:44;98050.97;;;17.17;100.00
74868;BME280;63419;42.262;12.210;2022-10-31T01:09:12;98043.59;;;17.43;100.00
74868;BME280;63419;42.262;12.210;2022-10-31T01:11:39;98048.75;;;17.85;100.00
74868;BME280;63419;42.262;12.210;2022-10-31T01:14:09;98048.69;;;17.97;100.00
74868;BME280;63419;42.262;12.210;2022-10-31T01:16:43;98046.63;;;18.00;100.00
74868;BME280;63419;42.262;12.210;2022-10-31T01:19:12;98053.06;;;17.75;100.00
74868;BME280;63419;42.262;12.210;2022-10-31T01:21:40;98052.66;;;17.70;100.00
74868;BME280;63419;42.262;12.210;2022-10-31T01:24:10;98047.34;;;17.81;100.00
74868;BME280;63419;42.262;12.210;2022-10-31T01:26:42;98044.63;;;17.62;100.00
74868;BME280;63419;42.262;12.210;2022-10-31T01:29:12;98047.06;;;17.84;100.00
74868;BME280;63419;42.262;12.210;2022-10-31T01:31:40;98047.25;;;17.62;100.00
74868;BME280;63419;42.262;12.210;2022-10-31T01:34:28;98051.50;;;17.63;100.00
74868;BME280;63419;42.262;12.210;2022-10-31T01:36:56;98047.19;;;18.14;100.00
74868;BME280;63419;42.262;12.210;2022-10-31T01:39:31;98050.53;;;17.64;100.00
74868;BME280;63419;42.262;12.210;2022-10-31T01:42:02;98048.25;;;17.07;100.00
74868;BME280;63419;42.262;12.210;2022-10-31T01:47:19;98041.97;;;17.52;100.00
74868;BME280;63419;42.262;12.210;2022-10-31T01:50:00;98044.53;;;17.73;100.00
74868;BME280;63419;42.262;12.210;2022-10-31T01:52:38;98040.28;;;17.72;100.00
74868;BME280;63419;42.262;12.210;2022-10-31T01:55:25;98035.44;;;17.88;100.00
74868;BME280;63419;42.262;12.210;2022-10-31T01:58:08;98036.56;;;17.96;100.00
74868;BME280;63419;42.262;12.210;2022-10-31T02:00:49;98034.19;;;17.31;100.00
74868;BME280;63419;42.262;12.210;2022-10-31T02:03:25;98045.16;;;17.13;100.00
74868;BME280;63419;42.262;12.210;2022-10-31T02:06:00;98039.06;;;17.76;100.00
74868;BME280;63419;42.262;12.210;2022-10-31T02:08:34;98042.59;;;17.86;100.00
74868;BME280;63419;42.262;12.210;2022-10-31T02:11:08;98034.97;;;17.53;100.00
74868;BME280;63419;42.262;12.210;2022-10-31T02:13:37;98036.47;;;17.76;100.00
74868;BME280;63419;42.262;12.210;2022-10-31T02:16:09;98026.06;;;17.34;100.00
74868;BME280;63419;42.262;12.210;2022-10-31T02:18:41;98035.84;;;17.63;100.00
74868;BME280;63419;42.262;12.210;2022-10-31T02:21:19;98034.63;;;17.36;100.00
74868;BME280;63419;42.262;12.210;2022-10-31T02:30:33;98030.59;;;17.32;100.00
74868;BME280;63419;42.262;12.210;2022-10-31T02:33:31;98026.78;;;17.36;100.00
74868;BME280;63419;42.262;12.210;2022-10-31T02:36:42;98027.16;;;17.53;100.00
74868;BME280;63419;42.262;12.210;2022-10-31T02:45:35;98024.88;;;17.17;100.00
74868;BME280;63419;42.262;12.210;2022-10-31T02:48:16;98023.97;;;17.49;100.00
74868;BME280;63419;42.262;12.210;2022-10-31T02:50:59;98024.81;;;17.59;100.00
74868;BME280;63419;42.262;12.210;2022-10-31T02:53:36;98021.38;;;17.49;100.00
74868;BME280;63419;42.262;12.210;2022-10-31T02:56:16;98032.25;;;17.54;100.00
74868;BME280;63419;42.262;12.210;2022-10-31T02:59:02;98029.53;;;17.65;100.00
74868;BME280;63419;42.262;12.210;2022-10-31T03:02:31;98033.25;;;17.94;100.00
74868;BME280;63419;42.262;12.210;2022-10-31T03:08:34;98022.81;;;17.94;100.00
74868;BME280;63419;42.262;12.210;2022-10-31T03:11:07;98025.88;;;17.99;100.00
74868;BME280;63419;42.262;12.210;2022-10-31T03:14:08;98024.22;;;17.77;100.00
74868;BME280;63419;42.262;12.210;2022-10-31T03:16:53;98021.75;;;18.06;100.00
74868;BME280;63419;42.262;12.210;2022-10-31T03:19:44;98021.41;;;17.89;100.00
74868;BME280;63419;42.262;12.210;2022-10-31T03:22:31;98028.19;;;17.71;100.00
74868;BME280;63419;42.262;12.210;2022-10-31T03:25:08;98028.72;;;17.65;100.00
74868;BME280;63419;42.262;12.210;2022-10-31T03:27:44;98033.22;;;17.63;100.00
74868;BME280;63419;42.262;12.210;2022-10-31T03:30:17;98039.16;;;17.65;100.00
74868;BME280;63419;42.262;12.210;2022-10-31T03:32:52;98036.31;;;17.47;100.00
74868;BME280;63419;42.262;12.210;2022-10-31T03:35:40;98031.84;;;17.89;100.00
74868;BME280;63419;42.262;12.210;2022-10-31T03:38:11;98034.50;;;17.68;100.00
74868;BME280;63419;42.262;12.210;2022-10-31T03:40:43;98031.59;;;17.41;100.00
74868;BME280;63419;42.262;12.210;2022-10-31T03:43:21;98030.59;;;17.63;100.00
74868;BME280;63419;42.262;12.210;2022-10-31T03:45:55;98035.44;;;17.67;100.00
74868;BME280;63419;42.262;12.210;2022-10-31T03:48:31;98031.34;;;17.44;100.00
74868;BME280;63419;42.262;12.210;2022-10-31T03:54:24;98040.06;;;17.54;100.00
74868;BME280;63419;42.262;12.210;2022-10-31T03:57:32;98035.56;;;17.66;100.00
74868;BME280;63419;42.262;12.210;2022-10-31T04:00:13;98034.28;;;17.81;100.00
74868;BME280;63419;42.262;12.210;2022-10-31T04:03:00;98035.75;;;17.95;100.00
74868;BME280;63419;42.262;12.210;2022-10-31T04:05:31;98037.72;;;17.51;100.00
74868;BME280;63419;42.262;12.210;2022-10-31T04:08:03;98039.66;;;17.59;100.00
74868;BME280;63419;42.262;12.210;2022-10-31T04:10:34;98039.09;;;17.55;100.00
74868;BME280;63419;42.262;12.210;2022-10-31T04:13:13;98034.06;;;17.33;100.00
74868;BME280;63419;42.262;12.210;2022-10-31T04:15:53;98045.78;;;17.27;100.00
74868;BME280;63419;42.262;12.210;2022-10-31T04:18:26;98037.84;;;17.28;100.00
74868;BME280;63419;42.262;12.210;2022-10-31T04:21:04;98031.72;;;17.39;100.00
74868;BME280;63419;42.262;12.210;2022-10-31T04:23:36;98040.44;;;17.49;100.00
74868;BME280;63419;42.262;12.210;2022-10-31T04:26:05;98042.13;;;17.50;100.00
74868;BME280;63419;42.262;12.210;2022-10-31T04:28:35;98035.56;;;17.14;100.00
74868;BME280;63419;42.262;12.210;2022-10-31T04:31:06;98047.09;;;17.11;100.00
74868;BME280;63419;42.262;12.210;2022-10-31T04:33:37;98043.44;;;16.70;100.00
74868;BME280;63419;42.262;12.210;2022-10-31T04:36:05;98047.66;;;16.83;100.00
74868;BME280;63419;42.262;12.210;2022-10-31T04:38:33;98043.56;;;17.01;100.00
74868;BME280;63419;42.262;12.210;2022-10-31T04:41:05;98047.06;;;16.90;100.00
74868;BME280;63419;42.262;12.210;2022-10-31T04:43:35;98046.22;;;17.11;100.00
74868;BME280;63419;42.262;12.210;2022-10-31T04:46:03;98050.13;;;16.96;100.00
74868;BME280;63419;42.262;12.210;2022-10-31T04:48:40;98043.97;;;17.39;100.00
74868;BME280;63419;42.262;12.210;2022-10-31T04:51:09;98047.38;;;17.18;100.00
74868;BME280;63419;42.262;12.210;2022-10-31T04:53:45;98043.06;;;17.49;100.00
74868;BME280;63419;42.262;12.210;2022-10-31T04:56:17;98040.09;;;17.64;100.00
74868;BME280;63419;42.262;12.210;2022-10-31T04:58:45;98042.94;;;17.09;100.00
74868;BME280;63419;42.262;12.210;2022-10-31T05:01:16;98041.84;;;17.54;100.00
74868;BME280;63419;42.262;12.210;2022-10-31T05:03:47;98047.44;;;17.49;100.00
74868;BME280;63419;42.262;12.210;2022-10-31T05:06:17;98041.78;;;17.44;100.00
74868;BME280;63419;42.262;12.210;2022-10-31T05:08:49;98044.53;;;17.42;100.00
74868;BME280;63419;42.262;12.210;2022-10-31T05:11:19;98042.84;;;17.41;100.00
74868;BME280;63419;42.262;12.210;2022-10-31T05:13:46;98041.38;;;17.48;100.00
74868;BME280;63419;42.262;12.210;2022-10-31T05:16:17;98045.78;;;18.00;100.00
74868;BME280;63419;42.262;12.210;2022-10-31T05:18:44;98041.84;;;17.84;100.00
74868;BME280;63419;42.262;12.210;2022-10-31T05:21:11;98044.06;;;17.58;100.00
74868;BME280;63419;42.262;12.210;2022-10-31T05:23:39;98040.25;;;17.41;100.00
74868;BME280;63419;42.262;12.210;2022-10-31T05:26:15;98042.53;;;17.56;100.00
74868;BME280;63419;42.262;12.210;2022-10-31T05:28:42;98040.28;;;17.72;100.00
74868;BME280;63419;42.262;12.210;2022-10-31T05:31:12;98046.91;;;17.76;100.00
74868;BME280;63419;42.262;12.210;2022-10-31T05:33:43;98040.75;;;17.56;100.00
74868;BME280;63419;42.262;12.210;2022-10-31T05:36:13;98041.53;;;17.99;100.00
74868;BME280;63419;42.262;12.210;2022-10-31T05:38:40;98040.00;;;17.96;100.00
74868;BME280;63419;42.262;12.210;2022-10-31T05:41:07;98044.38;;;17.65;100.00
74868;BME280;63419;42.262;12.210;2022-10-31T05:43:39;98047.75;;;18.17;100.00
74868;BME280;63419;42.262;12.210;2022-10-31T05:46:11;98051.75;;;18.12;100.00
74868;BME280;63419;42.262;12.210;2022-10-31T05:48:39;98050.13;;;17.89;100.00
74868;BME280;63419;42.262;12.210;2022-10-31T05:51:08;98044.84;;;18.01;100.00
74868;BME280;63419;42.262;12.210;2022-10-31T05:53:39;98053.66;;;18.10;100.00
74868;BME280;63419;42.262;12.210;2022-10-31T05:56:06;98053.25;;;17.83;100.00
74868;BME280;63419;42.262;12.210;2022-10-31T05:58:33;98057.44;;;17.96;100.00
74868;BME280;63419;42.262;12.210;2022-10-31T06:01:02;98058.41;;;17.95;100.00
74868;BME280;63419;42.262;12.210;2022-10-31T06:03:29;98062.69;;;18.05;100.00
74868;BME280;63419;42.262;12.210;2022-10-31T06:05:57;98063.00;;;17.81;100.00
74868;BME280;63419;42.262;12.210;2022-10-31T06:08:27;98062.31;;;17.79;100.00
74868;BME280;63419;42.262;12.210;2022-10-31T06:11:02;98064.06;;;18.00;100.00
74868;BME280;63419;42.262;12.210;2022-10-31T06:13:33;98060.75;;;17.98;100.00
74868;BME280;63419;42.262;12.210;2022-10-31T06:16:00;98063.25;;;18.09;100.00
74868;BME280;63419;42.262;12.210;2022-10-31T06:18:29;98072.66;;;18.21;100.00
74868;BME280;63419;42.262;12.210;2022-10-31T06:20:56;98077.78;;;17.92;100.00
74868;BME280;63419;42.262;12.210;2022-10-31T06:23:23;98080.38;;;17.71;100.00
74868;BME280;63419;42.262;12.210;2022-10-31T06:25:53;98086.75;;;17.78;100.00
74868;BME280;63419;42.262;12.210;2022-10-31T06:28:25;98093.13;;;17.85;100.00
74868;BME280;63419;42.262;12.210;2022-10-31T06:30:54;98099.81;;;17.15;100.00
74868;BME280;63419;42.262;12.210;2022-10-31T06:33:21;98098.53;;;17.09;100.00
74868;BME280;63419;42.262;12.210;2022-10-31T06:35:49;98100.25;;;17.20;100.00
74868;BME280;63419;42.262;12.210;2022-10-31T06:38:19;98095.25;;;18.42;100.00
74868;BME280;63419;42.262;12.210;2022-10-31T06:40:46;98095.31;;;18.61;100.00
74868;BME280;63419;42.262;12.210;2022-10-31T06:43:13;98101.16;;;18.85;100.00
74868;BME280;63419;42.262;12.210;2022-10-31T06:45:43;98102.53;;;18.98;100.00
74868;BME280;63419;42.262;12.210;2022-10-31T06:48:15;98107.91;;;18.97;100.00
74868;BME280;63419;42.262;12.210;2022-10-31T06:50:47;98111.34;;;18.88;100.00
74868;BME280;63419;42.262;12.210;2022-10-31T06:53:15;98112.31;;;19.06;100.00
74868;BME280;63419;42.262;12.210;2022-10-31T06:55:44;98116.84;;;19.24;100.00
74868;BME280;63419;42.262;12.210;2022-10-31T06:58:12;98112.72;;;19.21;100.00
74868;BME280;63419;42.262;12.210;2022-10-31T07:00:40;98113.28;;;19.34;100.00
74868;BME280;63419;42.262;12.210;2022-10-31T07:03:11;98102.13;;;19.99;100.00
74868;BME280;63419;42.262;12.210;2022-10-31T07:05:43;98110.31;;;19.57;100.00
74868;BME280;63419;42.262;12.210;2022-10-31T07:08:16;98111.28;;;18.78;100.00
74868;BME280;63419;42.262;12.210;2022-10-31T07:10:55;98112.94;;;19.57;100.00
74868;BME280;63419;42.262;12.210;2022-10-31T07:13:24;98106.47;;;20.18;100.00
74868;BME280;63419;42.262;12.210;2022-10-31T07:16:01;98115.84;;;19.73;100.00
74868;BME280;63419;42.262;12.210;2022-10-31T07:18:31;98105.31;;;20.30;100.00
74868;BME280;63419;42.262;12.210;2022-10-31T07:20:58;98107.69;;;19.76;100.00
74868;BME280;63419;42.262;12.210;2022-10-31T07:23:25;98107.00;;;19.84;100.00
74868;BME280;63419;42.262;12.210;2022-10-31T07:25:57;98111.88;;;20.07;100.00
74868;BME280;63419;42.262;12.210;2022-10-31T07:28:29;98114.53;;;19.97;100.00
74868;BME280;63419;42.262;12.210;2022-10-31T07:30:58;98111.94;;;19.97;100.00
74868;BME280;63419;42.262;12.210;2022-10-31T07:33:25;98120.38;;;19.62;100.00
74868;BME280;63419;42.262;12.210;2022-10-31T07:35:53;98125.94;;;19.29;100.00
74868;BME280;63419;42.262;12.210;2022-10-31T07:38:22;98126.59;;;20.17;100.00
74868;BME280;63419;42.262;12.210;2022-10-31T07:40:51;98122.50;;;20.05;100.00
74868;BME280;63419;42.262;12.210;2022-10-31T07:43:22;98132.25;;;20.50;100.00
74868;BME280;63419;42.262;12.210;2022-10-31T07:45:53;98129.91;;;20.20;100.00
74868;BME280;63419;42.262;12.210;2022-10-31T07:48:23;98132.25;;;19.75;100.00
74868;BME280;63419;42.262;12.210;2022-10-31T07:50:50;98133.91;;;19.37;100.00
74868;BME280;63419;42.262;12.210;2022-10-31T07:53:18;98136.63;;;19.85;100.00
74868;BME280;63419;42.262;12.210;2022-10-31T07:55:45;98127.53;;;21.00;100.00
74868;BME280;63419;42.262;12.210;2022-10-31T07:58:15;98134.94;;;20.68;100.00
74868;BME280;63419;42.262;12.210;2022-10-31T08:00:45;98139.28;;;20.50;100.00
74868;BME280;63419;42.262;12.210;2022-10-31T08:03:17;98134.78;;;20.70;100.00
74868;BME280;63419;42.262;12.210;2022-10-31T08:05:45;98137.13;;;20.08;100.00
74868;BME280;63419;42.262;12.210;2022-10-31T08:08:20;98140.81;;;20.80;100.00
74868;BME280;63419;42.262;12.210;2022-10-31T08:10:57;98142.22;;;20.37;100.00
74868;BME280;63419;42.262;12.210;2022-10-31T08:13:26;98143.00;;;20.47;100.00
74868;BME280;63419;42.262;12.210;2022-10-31T08:15:55;98135.44;;;20.07;100.00
74868;BME280;63419;42.262;12.210;2022-10-31T08:18:24;98143.28;;;20.44;100.00
74868;BME280;63419;42.262;12.210;2022-10-31T08:20:51;98132.97;;;20.70;100.00
74868;BME280;63419;42.262;12.210;2022-10-31T08:23:19;98134.38;;;21.46;100.00
74868;BME280;63419;42.262;12.210;2022-10-31T08:25:49;98127.34;;;22.76;100.00
74868;BME280;63419;42.262;12.210;2022-10-31T08:28:19;98130.19;;;22.99;100.00
74868;BME280;63419;42.262;12.210;2022-10-31T08:30:53;98118.53;;;23.92;100.00
74868;BME280;63419;42.262;12.210;2022-10-31T08:33:24;98127.72;;;23.72;100.00
74868;BME280;63419;42.262;12.210;2022-10-31T08:35:52;98136.97;;;23.68;100.00
74868;BME280;63419;42.262;12.210;2022-10-31T08:38:19;98124.19;;;24.21;100.00
74868;BME280;63419;42.262;12.210;2022-10-31T08:40:49;98127.91;;;24.35;100.00
74868;BME280;63419;42.262;12.210;2022-10-31T08:43:28;98118.47;;;25.34;100.00
74868;BME280;63419;42.262;12.210;2022-10-31T08:45:58;98117.50;;;24.81;100.00
74868;BME280;63419;42.262;12.210;2022-10-31T08:48:30;98128.28;;;24.71;100.00
74868;BME280;63419;42.262;12.210;2022-10-31T08:51:02;98127.81;;;24.67;100.00
74868;BME280;63419;42.262;12.210;2022-10-31T08:53:32;98123.91;;;25.09;100.00
74868;BME280;63419;42.262;12.210;2022-10-31T08:56:03;98130.78;;;24.64;100.00
74868;BME280;63419;42.262;12.210;2022-10-31T08:58:34;98117.44;;;24.18;100.00
74868;BME280;63419;42.262;12.210;2022-10-31T09:01:06;98136.00;;;23.44;100.00
74868;BME280;63419;42.262;12.210;2022-10-31T09:03:33;98135.88;;;22.62;100.00
74868;BME280;63419;42.262;12.210;2022-10-31T09:06:03;98133.28;;;22.36;100.00
74868;BME280;63419;42.262;12.210;2022-10-31T09:08:39;98126.22;;;22.28;100.00
74868;BME280;63419;42.262;12.210;2022-10-31T09:11:06;98139.09;;;21.61;100.00
74868;BME280;63419;42.262;12.210;2022-10-31T09:13:33;98126.31;;;22.61;100.00
74868;BME280;63419;42.262;12.210;2022-10-31T09:16:07;98124.31;;;23.47;100.00
74868;BME280;63419;42.262;12.210;2022-10-31T09:18:36;98120.38;;;23.18;100.00
74868;BME280;63419;42.262;12.210;2022-10-31T09:21:10;98127.56;;;23.65;100.00
74868;BME280;63419;42.262;12.210;2022-10-31T09:23:48;98119.56;;;25.17;100.00
74868;BME280;63419;42.262;12.210;2022-10-31T09:26:16;98119.88;;;26.28;100.00
74868;BME280;63419;42.262;12.210;2022-10-31T09:28:44;98113.34;;;26.45;100.00
74868;BME280;63419;42.262;12.210;2022-10-31T09:31:13;98121.19;;;25.79;100.00
74868;BME280;63419;42.262;12.210;2022-10-31T09:33:41;98121.56;;;26.50;100.00
74868;BME280;63419;42.262;12.210;2022-10-31T09:36:15;98118.88;;;25.99;100.00
74868;BME280;63419;42.262;12.210;2022-10-31T09:38:48;98113.53;;;27.60;100.00
74868;BME280;63419;42.262;12.210;2022-10-31T09:44:43;98128.72;;;23.79;100.00
74868;BME280;63419;42.262;12.210;2022-10-31T09:51:07;98112.31;;;26.25;100.00
74868;BME280;63419;42.262;12.210;2022-10-31T09:53:54;98111.38;;;26.32;100.00
74868;BME280;63419;42.262;12.210;2022-10-31T09:56:25;98114.28;;;26.37;100.00
74868;BME280;63419;42.262;12.210;2022-10-31T09:59:01;98105.03;;;27.99;100.00
74868;BME280;63419;42.262;12.210;2022-10-31T10:01:49;98108.44;;;26.93;100.00
74868;BME280;63419;42.262;12.210;2022-10-31T10:04:57;98101.44;;;28.62;100.00
74868;BME280;63419;42.262;12.210;2022-10-31T10:07:59;98111.44;;;26.54;100.00
74868;BME280;63419;42.262;12.210;2022-10-31T10:11:04;98112.03;;;25.52;100.00
74868;BME280;63419;42.262;12.210;2022-10-31T10:22:42;98108.78;;;27.83;100.00
74868;BME280;63419;42.262;12.210;2022-10-31T10:25:15;98101.78;;;26.83;100.00
74868;BME280;63419;42.262;12.210;2022-10-31T10:30:40;98091.78;;;29.29;100.00
74868;BME280;63419;42.262;12.210;2022-10-31T10:33:35;98096.53;;;28.59;100.00
74868;BME280;63419;42.262;12.210;2022-10-31T10:39:41;98072.91;;;32.56;76.49
74868;BME280;63419;42.262;12.210;2022-10-31T10:42:16;98072.91;;;32.56;76.49
74868;BME280;63419;42.262;12.210;2022-10-31T10:45:19;98053.34;;;36.63;53.21
74868;BME280;63419;42.262;12.210;2022-10-31T10:51:00;98052.19;;;37.99;49.61
74868;BME280;63419;42.262;12.210;2022-10-31T10:59:37;98061.22;;;34.05;67.08
74868;BME280;63419;42.262;12.210;2022-10-31T11:02:22;98069.28;;;33.58;68.53
74868;BME280;63419;42.262;12.210;2022-10-31T11:04:58;98053.34;;;37.18;52.63
74868;BME280;63419;42.262;12.210;2022-10-31T11:07:39;98046.94;;;38.45;49.75
74868;BME280;63419;42.262;12.210;2022-10-31T11:10:14;98059.66;;;36.02;51.80
74868;BME280;63419;42.262;12.210;2022-10-31T11:12:56;98050.25;;;36.71;47.67
74868;BME280;63419;42.262;12.210;2022-10-31T11:15:27;98044.34;;;39.17;45.41
74868;BME280;63419;42.262;12.210;2022-10-31T11:17:56;98047.56;;;36.22;46.19
74868;BME280;63419;42.262;12.210;2022-10-31T11:20:35;98065.03;;;31.00;90.45
74868;BME280;63419;42.262;12.210;2022-10-31T11:23:28;98078.56;;;28.61;100.00
74868;BME280;63419;42.262;12.210;2022-10-31T11:26:06;98062.63;;;31.42;93.65
74868;BME280;63419;42.262;12.210;2022-10-31T11:28:42;98045.63;;;34.02;62.73
74868;BME280;63419;42.262;12.210;2022-10-31T11:31:15;98044.84;;;34.71;60.70
74868;BME280;63419;42.262;12.210;2022-10-31T11:34:02;98034.03;;;36.17;57.93
74868;BME280;63419;42.262;12.210;2022-10-31T11:36:48;98030.28;;;36.94;50.36
74868;BME280;63419;42.262;12.210;2022-10-31T11:39:28;98032.06;;;36.84;47.86
74868;BME280;63419;42.262;12.210;2022-10-31T11:42:01;98050.78;;;31.81;75.44
74868;BME280;63419;42.262;12.210;2022-10-31T11:44:42;98042.94;;;34.14;60.85
74868;BME280;63419;42.262;12.210;2022-10-31T11:47:16;98037.53;;;34.83;57.55
74868;BME280;63419;42.262;12.210;2022-10-31T11:49:48;98026.53;;;36.95;55.00
74868;BME280;63419;42.262;12.210;2022-10-31T11:52:30;98048.38;;;32.47;65.25
74868;BME280;63419;42.262;12.210;2022-10-31T11:57:58;98044.72;;;28.96;98.16
74868;BME280;63419;42.262;12.210;2022-10-31T12:00:38;98041.63;;;30.31;87.91
74868;BME280;63419;42.262;12.210;2022-10-31T12:04:04;98044.94;;;29.08;100.00
74868;BME280;63419;42.262;12.210;2022-10-31T12:06:45;98047.69;;;28.53;73.43
74868;BME280;63419;42.262;12.210;2022-10-31T12:09:33;98043.09;;;28.95;64.40
74868;BME280;63419;42.262;12.210;2022-10-31T12:15:32;98048.88;;;27.54;70.91
74868;BME280;63419;42.262;12.210;2022-10-31T12:18:55;98042.84;;;27.73;76.05
74868;BME280;63419;42.262;12.210;2022-10-31T12:35:08;98018.63;;;28.18;74.17
74868;BME280;63419;42.262;12.210;2022-10-31T12:53:19;98014.84;;;27.64;59.50
74868;BME280;63419;42.262;12.210;2022-10-31T12:56:19;98010.16;;;27.60;66.90
74868;BME280;63419;42.262;12.210;2022-10-31T13:02:28;98010.16;;;27.03;57.83
74868;BME280;63419;42.262;12.210;2022-10-31T13:08:47;98006.81;;;27.23;61.62
74868;BME280;63419;42.262;12.210;2022-10-31T13:11:53;97998.09;;;29.60;61.98
74868;BME280;63419;42.262;12.210;2022-10-31T13:17:16;98004.22;;;26.58;67.74
74868;BME280;63419;42.262;12.210;2022-10-31T13:20:32;97998.00;;;26.87;65.19
74868;BME280;63419;42.262;12.210;2022-10-31T13:23:37;97986.59;;;26.44;64.61
74868;BME280;63419;42.262;12.210;2022-10-31T13:27:12;97999.22;;;26.85;65.51
74868;BME280;63419;42.262;12.210;2022-10-31T13:33:14;98004.81;;;27.53;61.03
74868;BME280;63419;42.262;12.210;2022-10-31T13:36:14;97996.91;;;27.60;61.91
74868;BME280;63419;42.262;12.210;2022-10-31T13:42:02;97992.00;;;26.78;59.60
74868;BME280;63419;42.262;12.210;2022-10-31T13:44:36;97990.94;;;26.73;59.45
74868;BME280;63419;42.262;12.210;2022-10-31T13:47:42;97999.00;;;27.08;58.62
74868;BME280;63419;42.262;12.210;2022-10-31T13:52:52;97995.56;;;28.19;54.24
74868;BME280;63419;42.262;12.210;2022-10-31T13:55:47;97998.00;;;28.20;55.70
74868;BME280;63419;42.262;12.210;2022-10-31T13:58:33;97990.13;;;28.54;64.42
74868;BME280;63419;42.262;12.210;2022-10-31T14:01:19;97993.88;;;28.04;56.76
74868;BME280;63419;42.262;12.210;2022-10-31T14:04:13;97982.41;;;29.32;54.59
74868;BME280;63419;42.262;12.210;2022-10-31T14:07:11;97985.38;;;30.21;51.28
74868;BME280;63419;42.262;12.210;2022-10-31T14:12:40;97975.72;;;30.97;45.00
74868;BME280;63419;42.262;12.210;2022-10-31T14:15:30;97976.56;;;30.34;48.04
74868;BME280;63419;42.262;12.210;2022-10-31T14:18:06;97991.81;;;27.58;100.00
74868;BME280;63419;42.262;12.210;2022-10-31T14:20:52;97981.06;;;31.16;71.40
74868;BME280;63419;42.262;12.210;2022-10-31T14:23:38;97975.34;;;33.07;68.82
74868;BME280;63419;42.262;12.210;2022-10-31T14:34:53;97971.41;;;32.56;67.93
74868;BME280;63419;42.262;12.210;2022-10-31T14:38:00;97961.88;;;35.32;56.93
74868;BME280;63419;42.262;12.210;2022-10-31T14:49:59;97949.56;;;37.27;47.97
74868;BME280;63419;42.262;12.210;2022-10-31T14:52:32;97950.22;;;38.23;45.40
74868;BME280;63419;42.262;12.210;2022-10-31T14:55:11;97962.13;;;35.31;48.54
74868;BME280;63419;42.262;12.210;2022-10-31T14:58:01;97964.16;;;36.07;48.96
74868;BME280;63419;42.262;12.210;2022-10-31T15:00:33;97970.38;;;35.68;49.96
74868;BME280;63419;42.262;12.210;2022-10-31T15:03:16;97958.16;;;37.19;48.38
74868;BME280;63419;42.262;12.210;2022-10-31T15:05:58;97970.97;;;33.13;57.01
74868;BME280;63419;42.262;12.210;2022-10-31T15:11:25;97966.41;;;34.93;59.60
74868;BME280;63419;42.262;12.210;2022-10-31T15:13:58;97960.31;;;35.97;52.44
74868;BME280;63419;42.262;12.210;2022-10-31T15:16:34;97979.03;;;33.77;58.47
74868;BME280;63419;42.262;12.210;2022-10-31T15:19:27;97975.28;;;34.64;57.80
74868;BME280;63419;42.262;12.210;2022-10-31T15:21:58;97964.22;;;36.12;54.15
74868;BME280;63419;42.262;12.210;2022-10-31T15:24:34;97972.34;;;33.91;59.66
74868;BME280;63419;42.262;12.210;2022-10-31T15:27:03;97984.25;;;33.60;62.77
74868;BME280;63419;42.262;12.210;2022-10-31T15:29:54;97974.66;;;33.24;64.97
74868;BME280;63419;42.262;12.210;2022-10-31T15:32:29;97996.53;;;30.05;86.05
74868;BME280;63419;42.262;12.210;2022-10-31T15:34:57;97995.28;;;31.09;86.91
74868;BME280;63419;42.262;12.210;2022-10-31T15:37:28;97992.56;;;30.21;100.00
74868;BME280;63419;42.262;12.210;2022-10-31T15:40:17;97995.91;;;30.80;100.00